createdAt,value
2018-07-16T00:00:23.342Z,30.73
2018-07-16T00:02:52.266Z,30.72
2018-07-16T00:05:21.026Z,30.73
2018-07-16T00:07:49.814Z,30.72
2018-07-16T00:10:18.608Z,30.71
2018-07-16T00:12:47.367Z,30.72
2018-07-16T00:15:16.091Z,30.72
2018-07-16T00:17:44.783Z,30.72
2018-07-16T00:20:13.519Z,30.71
2018-07-16T00:22:42.260Z,30.71
2018-07-16T00:25:11.047Z,30.70
2018-07-16T00:27:39.879Z,30.71
2018-07-16T00:30:08.753Z,30.70
2018-07-16T00:32:37.473Z,30.69
2018-07-16T00:35:06.215Z,30.70
2018-07-16T00:37:35.025Z,30.69
2018-07-16T00:40:03.793Z,30.68
2018-07-16T00:42:32.588Z,30.68
2018-07-16T00:45:01.299Z,30.67
2018-07-16T00:47:30.121Z,30.67
2018-07-16T00:49:58.862Z,30.67
2018-07-16T00:52:27.587Z,30.65
2018-07-16T00:54:56.340Z,30.66
2018-07-16T00:57:25.131Z,30.66
2018-07-16T00:59:53.870Z,30.64
2018-07-16T01:02:22.641Z,30.65
2018-07-16T01:04:51.369Z,30.64
2018-07-16T01:07:20.113Z,30.62
2018-07-16T01:09:48.874Z,30.63
2018-07-16T01:12:17.580Z,30.62
2018-07-16T01:14:46.278Z,30.62
2018-07-16T01:17:14.976Z,30.62
2018-07-16T01:19:43.742Z,30.61
2018-07-16T01:22:12.477Z,30.61
2018-07-16T01:24:41.189Z,30.60
2018-07-16T01:27:09.881Z,30.60
2018-07-16T01:29:38.665Z,30.58
2018-07-16T01:32:07.434Z,30.58
2018-07-16T01:34:36.265Z,30.58
2018-07-16T01:37:05.071Z,30.58
2018-07-16T01:39:33.770Z,30.58
2018-07-16T01:42:02.500Z,30.58
2018-07-16T01:44:31.202Z,30.58
2018-07-16T01:46:59.888Z,30.57
2018-07-16T01:49:28.688Z,30.56
2018-07-16T01:51:57.451Z,30.56
2018-07-16T01:54:26.160Z,30.56
2018-07-16T01:56:54.861Z,30.57
2018-07-16T01:59:23.593Z,30.56
2018-07-16T02:01:52.388Z,30.56
2018-07-16T02:04:21.109Z,30.56
2018-07-16T02:06:49.844Z,30.56
2018-07-16T02:09:18.571Z,30.55
2018-07-16T02:11:47.323Z,30.55
2018-07-16T02:14:16.115Z,30.55
2018-07-16T02:16:44.870Z,30.55
2018-07-16T02:19:13.609Z,30.55
2018-07-16T02:21:42.362Z,30.54
2018-07-16T02:24:11.073Z,30.54
2018-07-16T02:26:39.794Z,30.55
2018-07-16T02:29:08.645Z,30.54
2018-07-16T02:31:37.333Z,30.54
2018-07-16T02:34:06.077Z,30.55
2018-07-16T02:36:34.786Z,30.54
2018-07-16T02:39:03.578Z,30.54
2018-07-16T02:41:32.343Z,30.54
2018-07-16T02:44:01.045Z,30.54
2018-07-16T02:46:29.757Z,30.54
2018-07-16T02:48:58.481Z,30.55
2018-07-16T02:51:27.185Z,30.55
2018-07-16T02:53:55.924Z,30.56
2018-07-16T02:56:24.678Z,30.56
2018-07-16T02:58:53.444Z,30.56
2018-07-16T03:01:22.161Z,30.58
2018-07-16T03:03:50.873Z,30.58
2018-07-16T03:06:19.574Z,30.58
2018-07-16T03:08:48.298Z,30.57
2018-07-16T03:11:17.037Z,30.58
2018-07-16T03:13:45.826Z,30.59
2018-07-16T03:16:14.729Z,30.60
2018-07-16T03:18:43.418Z,30.61
2018-07-16T03:21:12.133Z,30.61
2018-07-16T03:23:40.866Z,30.63
2018-07-16T03:26:09.585Z,30.64
2018-07-16T03:28:38.340Z,30.65
2018-07-16T03:31:07.293Z,30.67
2018-07-16T03:33:36.047Z,30.69
2018-07-16T03:36:05.701Z,30.70
2018-07-16T03:38:34.498Z,30.72
2018-07-16T03:41:03.257Z,30.75
2018-07-16T03:43:31.996Z,30.76
2018-07-16T03:46:00.873Z,30.78
2018-07-16T03:48:29.633Z,30.80
2018-07-16T03:50:58.370Z,30.83
2018-07-16T03:53:27.145Z,30.85
2018-07-16T03:55:56.114Z,30.86
2018-07-16T03:58:24.670Z,30.88
2018-07-16T04:00:53.502Z,30.90
2018-07-16T04:03:22.265Z,30.92
2018-07-16T04:05:51.063Z,30.94
2018-07-16T04:08:19.813Z,30.96
2018-07-16T04:10:48.573Z,30.97
2018-07-16T04:13:17.466Z,30.99
2018-07-16T04:15:46.157Z,31.01
2018-07-16T04:18:17.728Z,31.03
2018-07-16T04:20:46.601Z,31.05
2018-07-16T04:23:15.350Z,31.07
2018-07-16T04:25:44.094Z,31.08
2018-07-16T04:28:13.294Z,31.11
2018-07-16T04:30:42.165Z,31.13
2018-07-16T04:33:11.005Z,31.15
2018-07-16T04:35:39.710Z,31.17
2018-07-16T04:38:08.479Z,31.19
2018-07-16T04:40:37.214Z,31.22
2018-07-16T04:43:06.017Z,31.23
2018-07-16T04:45:34.778Z,31.26
2018-07-16T04:48:03.504Z,31.28
2018-07-16T04:50:32.241Z,31.30
2018-07-16T04:53:01.048Z,31.32
2018-07-16T04:55:29.831Z,31.34
2018-07-16T04:57:58.586Z,31.36
2018-07-16T05:00:27.286Z,31.37
2018-07-16T05:02:56.059Z,31.39
2018-07-16T05:05:24.797Z,31.42
2018-07-16T05:07:53.653Z,31.43
2018-07-16T05:10:22.385Z,31.46
2018-07-16T05:12:51.088Z,31.47
2018-07-16T05:15:19.856Z,31.50
2018-07-16T05:17:48.614Z,31.51
2018-07-16T05:20:17.383Z,31.53
2018-07-16T05:22:46.166Z,31.55
2018-07-16T05:25:14.985Z,31.57
2018-07-16T05:27:43.718Z,31.59
2018-07-16T05:30:12.579Z,31.61
2018-07-16T05:32:41.494Z,31.63
2018-07-16T05:35:10.135Z,31.64
2018-07-16T05:37:38.872Z,31.67
2018-07-16T05:40:07.725Z,31.69
2018-07-16T05:42:36.722Z,31.70
2018-07-16T05:45:05.601Z,31.73
2018-07-16T05:47:34.338Z,31.75
2018-07-16T05:50:03.187Z,31.76
2018-07-16T05:52:31.936Z,31.80
2018-07-16T05:55:00.836Z,31.81
2018-07-16T05:57:29.553Z,31.83
2018-07-16T05:59:58.381Z,31.85
2018-07-16T06:02:27.285Z,31.87
2018-07-16T06:04:56.123Z,31.89
2018-07-16T06:07:24.947Z,31.90
2018-07-16T06:09:53.713Z,31.91
2018-07-16T06:12:22.507Z,31.93
2018-07-16T06:14:51.291Z,31.94
2018-07-16T06:17:20.140Z,31.96
2018-07-16T06:19:48.967Z,31.97
2018-07-16T06:22:17.783Z,31.75
2018-07-16T06:24:46.551Z,31.99
2018-07-16T06:27:15.372Z,32.01
2018-07-16T06:29:44.213Z,32.04
2018-07-16T06:32:12.931Z,32.04
2018-07-16T06:34:41.629Z,32.06
2018-07-16T06:37:10.416Z,32.07
2018-07-16T06:39:39.256Z,32.09
2018-07-16T06:42:08.215Z,32.10
2018-07-16T06:44:36.968Z,32.11
2018-07-16T06:47:05.981Z,32.12
2018-07-16T06:49:34.761Z,32.14
2018-07-16T06:52:03.531Z,32.14
2018-07-16T06:54:32.338Z,32.15
2018-07-16T06:57:01.193Z,32.17
2018-07-16T06:59:30.260Z,32.18
2018-07-16T07:01:59.033Z,32.19
2018-07-16T07:04:27.806Z,32.21
2018-07-16T07:06:56.658Z,32.21
2018-07-16T07:09:25.445Z,32.23
2018-07-16T07:11:54.210Z,32.24
2018-07-16T07:14:23.080Z,32.25
2018-07-16T07:16:51.828Z,32.27
2018-07-16T07:19:20.567Z,32.29
2018-07-16T07:21:49.461Z,32.29
2018-07-16T07:24:18.169Z,32.30
2018-07-16T07:26:46.932Z,32.31
2018-07-16T07:29:15.672Z,32.32
2018-07-16T07:31:44.421Z,32.33
2018-07-16T07:34:14.052Z,32.34
2018-07-16T07:36:43.175Z,32.35
2018-07-16T07:39:11.921Z,32.36
2018-07-16T07:41:40.646Z,32.36
2018-07-16T07:44:09.415Z,32.37
2018-07-16T07:46:38.160Z,32.38
2018-07-16T07:49:06.960Z,32.38
2018-07-16T07:51:35.777Z,32.38
2018-07-16T07:54:04.555Z,32.38
2018-07-16T07:56:33.277Z,32.38
2018-07-16T07:59:02.051Z,32.38
2018-07-16T08:01:30.851Z,32.36
2018-07-16T08:03:59.662Z,32.38
2018-07-16T08:06:28.470Z,32.38
2018-07-16T08:08:57.233Z,32.35
2018-07-16T08:11:26.050Z,32.36
2018-07-16T08:13:54.887Z,32.36
2018-07-16T08:16:23.645Z,32.35
2018-07-16T08:18:52.521Z,32.33
2018-07-16T08:21:21.311Z,32.34
2018-07-16T08:23:50.119Z,32.33
2018-07-16T08:26:18.897Z,32.33
2018-07-16T08:28:47.642Z,32.32
2018-07-16T08:31:16.360Z,32.33
2018-07-16T08:33:45.285Z,32.32
2018-07-16T08:36:14.063Z,32.32
2018-07-16T08:38:42.869Z,32.31
2018-07-16T08:41:11.664Z,32.30
2018-07-16T08:43:40.498Z,32.30
2018-07-16T08:46:09.267Z,32.30
2018-07-16T08:48:38.048Z,32.28
2018-07-16T08:51:07.193Z,32.29
2018-07-16T08:53:37.445Z,32.29
2018-07-16T08:56:06.231Z,32.27
2018-07-16T08:58:35.051Z,32.26
2018-07-16T09:01:03.834Z,32.27
2018-07-16T09:03:32.749Z,32.26
2018-07-16T09:06:05.601Z,32.25
2018-07-16T09:08:35.788Z,32.25
2018-07-16T09:11:04.717Z,32.25
2018-07-16T09:13:33.802Z,32.23
2018-07-16T09:16:02.541Z,32.23
2018-07-16T09:18:31.259Z,32.21
2018-07-16T09:20:59.994Z,32.21
2018-07-16T09:23:28.737Z,32.21
2018-07-16T09:25:57.526Z,32.21
2018-07-16T09:28:26.406Z,32.19
2018-07-16T09:30:55.272Z,32.18
2018-07-16T09:33:24.086Z,32.19
2018-07-16T09:35:52.933Z,32.18
2018-07-16T09:38:21.814Z,32.17
2018-07-16T09:40:50.608Z,32.16
2018-07-16T09:43:19.362Z,32.15
2018-07-16T09:45:48.157Z,32.14
2018-07-16T09:48:18.122Z,32.14
2018-07-16T09:50:46.897Z,32.13
2018-07-16T09:53:15.647Z,32.13
2018-07-16T09:55:44.451Z,32.12
2018-07-16T09:58:13.255Z,32.11
2018-07-16T10:00:47.213Z,32.11
2018-07-16T10:03:16.000Z,32.10
2018-07-16T10:05:44.727Z,32.09
2018-07-16T10:08:13.518Z,32.07
2018-07-16T10:10:42.374Z,32.05
2018-07-16T10:13:11.176Z,32.03
2018-07-16T10:15:39.916Z,32.01
2018-07-16T10:18:09.506Z,31.99
2018-07-16T10:20:38.394Z,31.97
2018-07-16T10:23:07.252Z,31.96
2018-07-16T10:25:36.046Z,31.94
2018-07-16T10:28:04.812Z,31.93
2018-07-16T10:30:33.624Z,31.90
2018-07-16T10:33:02.630Z,31.89
2018-07-16T10:35:31.572Z,31.88
2018-07-16T10:38:00.353Z,31.86
2018-07-16T10:40:59.594Z,31.85
2018-07-16T10:43:28.394Z,31.82
2018-07-16T10:45:57.151Z,31.82
2018-07-16T10:48:25.973Z,31.80
2018-07-16T10:50:54.848Z,31.79
2018-07-16T10:53:23.660Z,31.77
2018-07-16T10:55:52.459Z,31.76
2018-07-16T10:58:21.254Z,31.75
2018-07-16T11:00:50.094Z,31.74
2018-07-16T11:03:18.923Z,31.73
2018-07-16T11:05:47.683Z,31.72
2018-07-16T11:08:16.491Z,31.70
2018-07-16T11:10:45.297Z,31.69
2018-07-16T11:13:14.082Z,31.67
2018-07-16T11:15:42.805Z,31.66
2018-07-16T11:18:11.696Z,31.66
2018-07-16T11:20:40.459Z,31.64
2018-07-16T11:23:09.205Z,31.63
2018-07-16T11:25:37.938Z,31.64
2018-07-16T11:28:06.706Z,31.62
2018-07-16T11:30:35.451Z,31.61
2018-07-16T11:33:04.335Z,31.60
2018-07-16T11:35:33.166Z,31.60
2018-07-16T11:38:01.885Z,31.59
2018-07-16T11:40:30.683Z,31.59
2018-07-16T11:42:59.427Z,31.59
2018-07-16T11:45:28.218Z,31.58
2018-07-16T11:47:56.983Z,31.57
2018-07-16T11:50:25.878Z,31.57
2018-07-16T11:52:54.639Z,31.57
2018-07-16T11:55:23.383Z,31.56
2018-07-16T11:57:52.347Z,31.55
2018-07-16T12:00:21.129Z,31.55
2018-07-16T12:02:49.854Z,31.54
2018-07-16T12:05:18.608Z,31.55
2018-07-16T12:07:47.412Z,31.55
2018-07-16T12:10:16.303Z,31.55
2018-07-16T12:12:45.216Z,31.56
2018-07-16T12:15:13.952Z,31.55
2018-07-16T12:17:42.755Z,31.55
2018-07-16T12:20:11.552Z,31.55
2018-07-16T12:22:40.330Z,31.55
2018-07-16T12:25:09.138Z,31.55
2018-07-16T12:27:37.961Z,31.55
2018-07-16T12:30:07.559Z,31.54
2018-07-16T12:32:36.325Z,31.54
2018-07-16T12:35:05.250Z,31.55
2018-07-16T12:37:34.000Z,31.55
2018-07-16T12:40:02.814Z,31.55
2018-07-16T12:42:31.566Z,31.57
2018-07-16T12:45:00.425Z,31.57
2018-07-16T12:47:29.192Z,31.57
2018-07-16T12:49:57.972Z,31.58
2018-07-16T12:52:26.832Z,31.59
2018-07-16T12:54:55.717Z,31.60
2018-07-16T12:57:24.705Z,31.61
2018-07-16T12:59:53.484Z,31.61
2018-07-16T13:02:22.403Z,31.62
2018-07-16T13:04:51.197Z,31.62
2018-07-16T13:07:19.962Z,31.62
2018-07-16T13:09:48.797Z,31.63
2018-07-16T13:12:17.628Z,31.63
2018-07-16T13:14:46.495Z,31.62
2018-07-16T13:17:15.376Z,31.64
2018-07-16T13:19:44.131Z,31.63
2018-07-16T13:22:13.026Z,31.62
2018-07-16T13:24:41.985Z,31.62
2018-07-16T13:27:10.789Z,31.64
2018-07-16T13:29:39.587Z,31.63
2018-07-16T13:32:08.443Z,31.63
2018-07-16T13:34:37.210Z,31.64
2018-07-16T13:37:06.073Z,31.65
2018-07-16T13:39:34.964Z,31.65
2018-07-16T13:42:03.878Z,31.65
2018-07-16T13:44:32.661Z,31.66
2018-07-16T13:47:01.470Z,31.66
2018-07-16T13:49:30.255Z,31.67
2018-07-16T13:51:59.053Z,31.67
2018-07-16T13:54:27.911Z,31.68
2018-07-16T13:56:56.750Z,31.69
2018-07-16T13:59:25.509Z,31.69
2018-07-16T14:01:54.331Z,31.70
2018-07-16T14:04:29.353Z,31.70
2018-07-16T14:06:58.139Z,31.69
2018-07-16T14:09:26.899Z,31.71
2018-07-16T14:11:55.632Z,31.69
2018-07-16T14:14:24.558Z,31.70
2018-07-16T14:16:53.438Z,31.70
2018-07-16T14:19:22.226Z,31.72
2018-07-16T14:21:51.037Z,31.71
2018-07-16T14:24:20.021Z,31.73
2018-07-16T14:26:48.967Z,31.74
2018-07-16T14:29:17.777Z,31.73
2018-07-16T14:31:46.546Z,31.75
2018-07-16T14:34:15.337Z,31.76
2018-07-16T14:36:44.207Z,31.76
2018-07-16T14:39:12.952Z,31.76
2018-07-16T14:41:41.827Z,31.77
2018-07-16T14:44:10.736Z,31.78
2018-07-16T14:46:39.540Z,31.77
2018-07-16T14:49:08.410Z,31.78
2018-07-16T14:51:37.199Z,31.79
2018-07-16T14:54:05.974Z,31.79
2018-07-16T14:56:34.827Z,31.80
2018-07-16T14:59:03.598Z,31.79
2018-07-16T15:01:32.420Z,31.80
2018-07-16T15:04:01.225Z,31.82
2018-07-16T15:06:30.152Z,31.81
2018-07-16T15:08:59.013Z,31.82
2018-07-16T15:11:27.767Z,31.83
2018-07-16T15:13:56.663Z,31.83
2018-07-16T15:16:25.520Z,31.82
2018-07-16T15:18:54.313Z,31.83
2018-07-16T15:21:23.192Z,31.82
2018-07-16T15:23:51.924Z,31.82
2018-07-16T15:26:20.703Z,31.83
2018-07-16T15:28:49.506Z,31.81
2018-07-16T15:31:18.344Z,31.81
2018-07-16T15:33:47.094Z,31.82
2018-07-16T15:36:15.917Z,31.81
2018-07-16T15:38:45.022Z,31.81
2018-07-16T15:41:14.245Z,31.81
2018-07-16T15:43:43.371Z,31.82
2018-07-16T15:46:12.201Z,31.81
2018-07-16T15:48:41.149Z,31.79
2018-07-16T15:51:09.897Z,31.79
2018-07-16T15:53:39.037Z,31.80
2018-07-16T15:56:08.480Z,31.80
2018-07-16T15:58:37.275Z,31.79
2018-07-16T16:01:06.245Z,31.78
2018-07-16T16:03:35.105Z,31.78
2018-07-16T16:06:03.975Z,31.79
2018-07-16T16:08:32.777Z,31.78
2018-07-16T16:11:01.494Z,31.78
2018-07-16T16:13:30.265Z,31.78
2018-07-16T16:15:59.088Z,31.78
2018-07-16T16:18:27.853Z,31.78
2018-07-16T16:20:56.591Z,31.78
2018-07-16T16:23:25.336Z,31.78
2018-07-16T16:25:54.136Z,31.78
2018-07-16T16:28:23.024Z,31.76
2018-07-16T16:30:51.835Z,31.78
2018-07-16T16:33:20.588Z,31.77
2018-07-16T16:35:49.391Z,31.76
2018-07-16T16:38:18.161Z,31.77
2018-07-16T16:40:46.970Z,31.76
2018-07-16T16:43:15.801Z,31.76
2018-07-16T16:45:44.630Z,31.76
2018-07-16T16:48:13.408Z,31.76
2018-07-16T16:50:42.259Z,31.75
2018-07-16T16:53:11.103Z,31.75
2018-07-16T16:55:39.877Z,31.76
2018-07-16T16:58:08.796Z,31.75
2018-07-16T17:00:37.547Z,31.75
2018-07-16T17:03:06.384Z,31.76
2018-07-16T17:05:35.233Z,31.74
2018-07-16T17:08:04.254Z,31.74
2018-07-16T17:10:33.083Z,31.74
2018-07-16T17:13:01.844Z,31.74
2018-07-16T17:15:30.752Z,31.73
2018-07-16T17:17:59.707Z,31.74
2018-07-16T17:20:28.454Z,31.74
2018-07-16T17:22:57.185Z,31.75
2018-07-16T17:25:25.972Z,31.75
2018-07-16T17:27:54.752Z,31.75
2018-07-16T17:30:23.640Z,31.76
2018-07-16T17:32:52.435Z,31.76
2018-07-16T17:35:21.197Z,31.78
2018-07-16T17:37:50.029Z,31.76
2018-07-16T17:40:18.936Z,31.78
2018-07-16T17:42:47.694Z,31.79
2018-07-16T17:45:16.493Z,31.78
2018-07-16T17:47:45.234Z,31.79
2018-07-16T17:50:14.057Z,31.78
2018-07-16T17:52:42.814Z,31.81
2018-07-16T17:55:11.544Z,31.80
2018-07-16T17:57:40.318Z,31.81
2018-07-16T18:00:09.089Z,31.81
2018-07-16T18:02:38.108Z,31.81
2018-07-16T18:05:06.915Z,31.81
2018-07-16T18:07:36.456Z,31.82
2018-07-16T18:10:05.713Z,31.82
2018-07-16T18:12:34.546Z,31.82
2018-07-16T18:15:03.399Z,31.82
2018-07-16T18:17:32.279Z,31.82
2018-07-16T18:20:01.222Z,31.82
2018-07-16T18:22:29.989Z,31.82
2018-07-16T18:24:58.808Z,31.82
2018-07-16T18:27:27.555Z,31.82
2018-07-16T18:29:56.296Z,31.81
2018-07-16T18:32:25.170Z,31.82
2018-07-16T18:34:53.960Z,31.82
2018-07-16T18:37:22.764Z,31.81
2018-07-16T18:39:51.514Z,31.82
2018-07-16T18:42:20.295Z,31.81
2018-07-16T18:44:49.004Z,31.81
2018-07-16T18:47:17.759Z,31.80
2018-07-16T18:49:46.603Z,31.81
2018-07-16T18:52:15.350Z,31.80
2018-07-16T18:54:44.257Z,31.81
2018-07-16T18:57:13.043Z,31.81
2018-07-16T18:59:41.793Z,31.80
2018-07-16T19:02:10.655Z,31.80
2018-07-16T19:04:39.418Z,31.79
2018-07-16T19:07:08.350Z,31.78
2018-07-16T19:09:37.124Z,31.78
2018-07-16T19:12:05.965Z,31.79
2018-07-16T19:14:34.769Z,31.78
2018-07-16T19:17:03.610Z,31.78
2018-07-16T19:19:32.583Z,31.78
2018-07-16T19:22:01.497Z,31.78
2018-07-16T19:24:30.398Z,31.77
2018-07-16T19:26:59.334Z,31.77
2018-07-16T19:29:28.323Z,31.77
2018-07-16T19:31:57.130Z,31.76
2018-07-16T19:34:25.910Z,31.76
2018-07-16T19:36:54.713Z,31.76
2018-07-16T19:39:23.488Z,31.76
2018-07-16T19:41:52.271Z,31.75
2018-07-16T19:44:21.139Z,31.75
2018-07-16T19:46:49.894Z,31.75
2018-07-16T19:49:19.029Z,31.74
2018-07-16T19:51:47.799Z,31.75
2018-07-16T19:54:16.625Z,31.73
2018-07-16T19:56:45.470Z,31.74
2018-07-16T19:59:14.345Z,31.73
2018-07-16T20:01:43.193Z,31.73
2018-07-16T20:04:12.032Z,31.72
2018-07-16T20:06:40.804Z,31.73
2018-07-16T20:09:09.584Z,31.72
2018-07-16T20:11:38.737Z,31.72
2018-07-16T20:14:07.535Z,31.71
2018-07-16T20:16:39.046Z,31.70
2018-07-16T20:19:07.939Z,31.70
2018-07-16T20:21:36.739Z,31.70
2018-07-16T20:24:05.608Z,31.70
2018-07-16T20:26:34.428Z,31.70
2018-07-16T20:29:03.261Z,31.69
2018-07-16T20:31:32.022Z,31.69
2018-07-16T20:34:01.043Z,31.69
2018-07-16T20:36:29.948Z,31.68
2018-07-16T20:38:58.817Z,31.67
2018-07-16T20:41:27.645Z,31.67
2018-07-16T20:43:56.497Z,31.67
2018-07-16T20:46:25.293Z,31.66
2018-07-16T20:48:54.050Z,31.65
2018-07-16T20:51:22.845Z,31.65
2018-07-16T20:53:51.699Z,31.66
2018-07-16T20:56:20.550Z,31.64
2018-07-16T20:58:49.460Z,31.64
2018-07-16T21:01:19.729Z,31.63
2018-07-16T21:03:48.982Z,31.62
2018-07-16T21:06:17.829Z,31.61
2018-07-16T21:08:46.766Z,31.59
2018-07-16T21:11:15.551Z,31.57
2018-07-16T21:13:44.306Z,31.53
2018-07-16T21:16:13.105Z,31.52
2018-07-16T21:18:41.867Z,31.49
2018-07-16T21:21:10.727Z,31.46
2018-07-16T21:23:39.641Z,31.44
2018-07-16T21:26:08.659Z,31.41
2018-07-16T21:28:37.513Z,31.39
2018-07-16T21:31:06.565Z,31.37
2018-07-16T21:33:35.387Z,31.35
2018-07-16T21:36:04.457Z,31.33
2018-07-16T21:38:33.341Z,31.31
2018-07-16T21:41:02.136Z,31.29
2018-07-16T21:43:31.062Z,31.26
2018-07-16T21:46:00.107Z,31.24
2018-07-16T21:48:28.895Z,31.21
2018-07-16T21:50:57.676Z,31.20
2018-07-16T21:53:26.441Z,31.18
2018-07-16T21:55:57.022Z,31.16
2018-07-16T21:58:25.891Z,31.14
2018-07-16T22:00:55.030Z,31.13
2018-07-16T22:03:24.032Z,31.14
2018-07-16T22:05:53.795Z,31.15
2018-07-16T22:08:22.632Z,31.15
2018-07-16T22:10:51.495Z,31.16
2018-07-16T22:13:20.270Z,31.16
2018-07-16T22:15:49.063Z,31.16
2018-07-16T22:18:17.889Z,31.15
2018-07-16T22:20:46.719Z,31.16
2018-07-16T22:23:15.562Z,31.15
2018-07-16T22:25:44.350Z,31.16
2018-07-16T22:28:13.137Z,31.16
2018-07-16T22:30:41.940Z,31.15
2018-07-16T22:33:10.743Z,31.15
2018-07-16T22:35:39.531Z,31.15
2018-07-16T22:38:08.274Z,31.15
2018-07-16T22:40:37.074Z,31.15
2018-07-16T22:43:05.886Z,31.16
2018-07-16T22:45:34.611Z,31.15
2018-07-16T22:48:03.375Z,31.16
2018-07-16T22:50:33.888Z,31.16
2018-07-16T22:53:02.694Z,31.15
2018-07-16T22:55:31.422Z,31.15
2018-07-16T22:58:00.165Z,31.15
2018-07-16T23:00:28.950Z,31.15
2018-07-16T23:02:57.742Z,31.15
2018-07-16T23:05:26.494Z,31.15
2018-07-16T23:07:55.298Z,31.15
2018-07-16T23:10:24.072Z,31.15
2018-07-16T23:12:52.845Z,31.14
2018-07-16T23:15:21.675Z,31.15
2018-07-16T23:17:50.429Z,31.15
2018-07-16T23:20:19.316Z,31.14
2018-07-16T23:22:53.674Z,31.15
2018-07-16T23:25:22.753Z,31.15
2018-07-16T23:27:51.538Z,31.14
2018-07-16T23:30:20.265Z,31.15
2018-07-16T23:32:49.097Z,31.14
2018-07-16T23:35:18.446Z,31.14
2018-07-16T23:37:47.506Z,31.14
2018-07-16T23:40:16.341Z,31.14
2018-07-16T23:42:45.139Z,31.13
2018-07-16T23:45:13.898Z,31.14
2018-07-16T23:47:42.611Z,31.14
2018-07-16T23:50:11.355Z,31.13
2018-07-16T23:52:40.646Z,31.14
2018-07-16T23:55:09.530Z,31.14
2018-07-16T23:57:38.263Z,31.14
